sensor_id;sensor_type;location;lat;lon;timestamp;temperature;humidity
29817;DHT22;16805;52.956;5.906;2022-09-09T00:01:37;15.90;99.90
29817;DHT22;16805;52.956;5.906;2022-09-09T00:09:19;15.90;99.90
29817;DHT22;16805;52.956;5.906;2022-09-09T00:11:51;15.80;99.90
29817;DHT22;16805;52.956;5.906;2022-09-09T00:14:56;15.80;99.90
29817;DHT22;16805;52.956;5.906;2022-09-09T00:17:38;15.80;99.90
29817;DHT22;16805;52.956;5.906;2022-09-09T00:28:27;15.60;99.90
29817;DHT22;16805;52.956;5.906;2022-09-09T00:30:53;15.60;99.90
29817;DHT22;16805;52.956;5.906;2022-09-09T00:33:23;15.60;99.90
29817;DHT22;16805;52.956;5.906;2022-09-09T00:35:54;15.50;99.90
29817;DHT22;16805;52.956;5.906;2022-09-09T00:38:35;15.50;99.90
29817;DHT22;16805;52.956;5.906;2022-09-09T00:43:40;15.50;99.90
29817;DHT22;16805;52.956;5.906;2022-09-09T00:54:37;15.50;99.90
29817;DHT22;16805;52.956;5.906;2022-09-09T01:02:59;15.50;99.90
29817;DHT22;16805;52.956;5.906;2022-09-09T01:11:24;15.50;99.90
29817;DHT22;16805;52.956;5.906;2022-09-09T01:14:03;15.60;99.90
29817;DHT22;16805;52.956;5.906;2022-09-09T01:16:36;15.60;99.90
29817;DHT22;16805;52.956;5.906;2022-09-09T01:19:03;15.60;99.90
29817;DHT22;16805;52.956;5.906;2022-09-09T01:24:08;15.60;99.90
29817;DHT22;16805;52.956;5.906;2022-09-09T01:26:42;15.70;99.90
29817;DHT22;16805;52.956;5.906;2022-09-09T01:29:16;15.70;99.90
29817;DHT22;16805;52.956;5.906;2022-09-09T01:34:22;15.70;99.90
29817;DHT22;16805;52.956;5.906;2022-09-09T01:37:07;15.70;99.90
29817;DHT22;16805;52.956;5.906;2022-09-09T01:39:35;15.70;99.90
29817;DHT22;16805;52.956;5.906;2022-09-09T01:42:03;15.70;99.90
29817;DHT22;16805;52.956;5.906;2022-09-09T01:44:30;15.70;99.90
29817;DHT22;16805;52.956;5.906;2022-09-09T01:46:56;15.70;99.90
29817;DHT22;16805;52.956;5.906;2022-09-09T01:49:21;15.80;99.90
29817;DHT22;16805;52.956;5.906;2022-09-09T01:51:50;15.80;99.90
29817;DHT22;16805;52.956;5.906;2022-09-09T01:54:17;15.80;99.90
29817;DHT22;16805;52.956;5.906;2022-09-09T01:57:01;15.70;99.90
29817;DHT22;16805;52.956;5.906;2022-09-09T02:05:37;15.70;99.90
29817;DHT22;16805;52.956;5.906;2022-09-09T02:08:11;15.70;99.90
29817;DHT22;16805;52.956;5.906;2022-09-09T02:10:46;15.70;99.90
29817;DHT22;16805;52.956;5.906;2022-09-09T02:13:18;15.70;99.90
29817;DHT22;16805;52.956;5.906;2022-09-09T02:18:38;15.70;99.90
29817;DHT22;16805;52.956;5.906;2022-09-09T02:21:06;15.80;99.90
29817;DHT22;16805;52.956;5.906;2022-09-09T02:23:51;15.70;99.90
29817;DHT22;16805;52.956;5.906;2022-09-09T02:26:19;15.70;99.90
29817;DHT22;16805;52.956;5.906;2022-09-09T02:28:50;15.70;99.90
29817;DHT22;16805;52.956;5.906;2022-09-09T02:31:21;15.70;99.90
29817;DHT22;16805;52.956;5.906;2022-09-09T02:33:59;15.70;99.90
29817;DHT22;16805;52.956;5.906;2022-09-09T02:36:29;15.70;99.90
29817;DHT22;16805;52.956;5.906;2022-09-09T02:38:56;15.70;99.90
29817;DHT22;16805;52.956;5.906;2022-09-09T02:41:33;15.70;99.90
29817;DHT22;16805;52.956;5.906;2022-09-09T02:43:59;15.70;99.90
29817;DHT22;16805;52.956;5.906;2022-09-09T02:52:17;15.60;99.90
29817;DHT22;16805;52.956;5.906;2022-09-09T02:54:44;15.60;99.90
29817;DHT22;16805;52.956;5.906;2022-09-09T02:57:23;15.60;99.90
29817;DHT22;16805;52.956;5.906;2022-09-09T02:59:50;15.60;99.90
29817;DHT22;16805;52.956;5.906;2022-09-09T03:02:18;15.60;99.90
29817;DHT22;16805;52.956;5.906;2022-09-09T03:04:44;15.50;99.90
29817;DHT22;16805;52.956;5.906;2022-09-09T03:07:10;15.50;99.90
29817;DHT22;16805;52.956;5.906;2022-09-09T03:09:37;15.50;99.90
29817;DHT22;16805;52.956;5.906;2022-09-09T03:12:03;15.50;99.90
29817;DHT22;16805;52.956;5.906;2022-09-09T03:14:30;15.50;99.90
29817;DHT22;16805;52.956;5.906;2022-09-09T03:16:56;15.50;99.90
29817;DHT22;16805;52.956;5.906;2022-09-09T03:19:23;15.50;99.90
29817;DHT22;16805;52.956;5.906;2022-09-09T03:21:49;15.50;99.90
29817;DHT22;16805;52.956;5.906;2022-09-09T03:24:15;15.50;99.90
29817;DHT22;16805;52.956;5.906;2022-09-09T03:26:41;15.50;99.90
29817;DHT22;16805;52.956;5.906;2022-09-09T03:29:10;15.50;99.90
29817;DHT22;16805;52.956;5.906;2022-09-09T03:31:38;15.50;99.90
29817;DHT22;16805;52.956;5.906;2022-09-09T03:34:04;15.50;99.90
29817;DHT22;16805;52.956;5.906;2022-09-09T03:36:30;15.50;99.90
29817;DHT22;16805;52.956;5.906;2022-09-09T03:38:55;15.50;99.90
29817;DHT22;16805;52.956;5.906;2022-09-09T03:41:24;15.50;99.90
29817;DHT22;16805;52.956;5.906;2022-09-09T03:43:51;15.50;99.90
29817;DHT22;16805;52.956;5.906;2022-09-09T03:46:21;15.50;99.90
29817;DHT22;16805;52.956;5.906;2022-09-09T03:48:46;15.50;99.90
29817;DHT22;16805;52.956;5.906;2022-09-09T03:51:12;15.50;99.90
29817;DHT22;16805;52.956;5.906;2022-09-09T03:53:38;15.50;99.90
29817;DHT22;16805;52.956;5.906;2022-09-09T03:56:06;15.50;99.90
29817;DHT22;16805;52.956;5.906;2022-09-09T03:58:33;15.50;99.90
29817;DHT22;16805;52.956;5.906;2022-09-09T04:01:02;15.50;99.90
29817;DHT22;16805;52.956;5.906;2022-09-09T04:03:28;15.50;99.90
29817;DHT22;16805;52.956;5.906;2022-09-09T04:05:55;15.50;99.90
29817;DHT22;16805;52.956;5.906;2022-09-09T04:08:22;15.50;99.90
29817;DHT22;16805;52.956;5.906;2022-09-09T04:10:48;15.50;99.90
29817;DHT22;16805;52.956;5.906;2022-09-09T04:13:16;15.50;99.90
29817;DHT22;16805;52.956;5.906;2022-09-09T04:15:44;15.40;99.90
29817;DHT22;16805;52.956;5.906;2022-09-09T04:18:10;15.50;99.90
29817;DHT22;16805;52.956;5.906;2022-09-09T04:20:37;15.50;99.90
29817;DHT22;16805;52.956;5.906;2022-09-09T04:23:04;15.50;99.90
29817;DHT22;16805;52.956;5.906;2022-09-09T04:25:30;15.50;99.90
29817;DHT22;16805;52.956;5.906;2022-09-09T04:27:57;15.50;99.90
29817;DHT22;16805;52.956;5.906;2022-09-09T04:30:24;15.50;99.90
29817;DHT22;16805;52.956;5.906;2022-09-09T04:32:50;15.50;99.90
29817;DHT22;16805;52.956;5.906;2022-09-09T04:35:16;15.50;99.90
29817;DHT22;16805;52.956;5.906;2022-09-09T04:37:42;15.50;99.90
29817;DHT22;16805;52.956;5.906;2022-09-09T04:40:08;15.40;99.90
29817;DHT22;16805;52.956;5.906;2022-09-09T04:42:38;15.40;99.90
29817;DHT22;16805;52.956;5.906;2022-09-09T04:45:05;15.40;99.90
29817;DHT22;16805;52.956;5.906;2022-09-09T04:47:32;15.40;99.90
29817;DHT22;16805;52.956;5.906;2022-09-09T04:50:00;15.40;99.90
29817;DHT22;16805;52.956;5.906;2022-09-09T04:52:26;15.30;99.90
29817;DHT22;16805;52.956;5.906;2022-09-09T04:54:51;15.30;99.90
29817;DHT22;16805;52.956;5.906;2022-09-09T04:57:19;15.30;99.90
29817;DHT22;16805;52.956;5.906;2022-09-09T04:59:45;15.30;99.90
29817;DHT22;16805;52.956;5.906;2022-09-09T05:02:11;15.30;99.90
29817;DHT22;16805;52.956;5.906;2022-09-09T05:04:37;15.30;99.90
29817;DHT22;16805;52.956;5.906;2022-09-09T05:07:02;15.20;99.90
29817;DHT22;16805;52.956;5.906;2022-09-09T05:09:28;15.20;99.90
29817;DHT22;16805;52.956;5.906;2022-09-09T05:11:54;15.20;99.90
29817;DHT22;16805;52.956;5.906;2022-09-09T05:14:20;15.30;99.90
29817;DHT22;16805;52.956;5.906;2022-09-09T05:16:45;15.30;99.90
29817;DHT22;16805;52.956;5.906;2022-09-09T05:19:12;15.30;99.90
29817;DHT22;16805;52.956;5.906;2022-09-09T05:21:38;15.20;99.90
29817;DHT22;16805;52.956;5.906;2022-09-09T05:24:04;15.20;99.90
29817;DHT22;16805;52.956;5.906;2022-09-09T05:26:29;15.30;99.90
29817;DHT22;16805;52.956;5.906;2022-09-09T05:28:55;15.20;99.90
29817;DHT22;16805;52.956;5.906;2022-09-09T05:31:22;15.20;99.90
29817;DHT22;16805;52.956;5.906;2022-09-09T05:33:48;15.20;99.90
29817;DHT22;16805;52.956;5.906;2022-09-09T05:38:40;15.20;99.90
29817;DHT22;16805;52.956;5.906;2022-09-09T05:41:07;15.20;99.90
29817;DHT22;16805;52.956;5.906;2022-09-09T05:43:33;15.20;99.90
29817;DHT22;16805;52.956;5.906;2022-09-09T05:46:08;15.20;99.90
29817;DHT22;16805;52.956;5.906;2022-09-09T05:48:35;15.20;99.90
29817;DHT22;16805;52.956;5.906;2022-09-09T05:51:03;15.20;99.90
29817;DHT22;16805;52.956;5.906;2022-09-09T05:53:30;15.20;99.90
29817;DHT22;16805;52.956;5.906;2022-09-09T05:56:23;15.10;99.90
29817;DHT22;16805;52.956;5.906;2022-09-09T05:58:50;15.10;99.90
29817;DHT22;16805;52.956;5.906;2022-09-09T06:01:22;15.10;99.90
29817;DHT22;16805;52.956;5.906;2022-09-09T06:03:49;15.10;99.90
29817;DHT22;16805;52.956;5.906;2022-09-09T06:06:17;15.00;99.90
29817;DHT22;16805;52.956;5.906;2022-09-09T06:08:44;15.00;99.90
29817;DHT22;16805;52.956;5.906;2022-09-09T06:11:22;15.00;99.90
29817;DHT22;16805;52.956;5.906;2022-09-09T06:13:49;15.00;99.90
29817;DHT22;16805;52.956;5.906;2022-09-09T06:16:18;15.10;99.90
29817;DHT22;16805;52.956;5.906;2022-09-09T06:18:45;15.10;99.90
29817;DHT22;16805;52.956;5.906;2022-09-09T06:21:16;15.10;99.90
29817;DHT22;16805;52.956;5.906;2022-09-09T06:23:42;15.10;99.90
29817;DHT22;16805;52.956;5.906;2022-09-09T06:26:29;15.10;99.90
29817;DHT22;16805;52.956;5.906;2022-09-09T06:28:56;15.10;99.90
29817;DHT22;16805;52.956;5.906;2022-09-09T06:31:27;15.10;99.90
29817;DHT22;16805;52.956;5.906;2022-09-09T06:33:56;15.10;99.90
29817;DHT22;16805;52.956;5.906;2022-09-09T06:36:22;15.10;99.90
29817;DHT22;16805;52.956;5.906;2022-09-09T06:38:49;15.20;99.90
29817;DHT22;16805;52.956;5.906;2022-09-09T06:41:17;15.20;99.90
29817;DHT22;16805;52.956;5.906;2022-09-09T06:43:44;15.20;99.90
29817;DHT22;16805;52.956;5.906;2022-09-09T06:46:18;15.20;99.90
29817;DHT22;16805;52.956;5.906;2022-09-09T06:48:45;15.30;99.90
29817;DHT22;16805;52.956;5.906;2022-09-09T06:51:16;15.30;99.90
29817;DHT22;16805;52.956;5.906;2022-09-09T06:53:44;15.30;99.90
29817;DHT22;16805;52.956;5.906;2022-09-09T06:58:36;15.30;99.90
29817;DHT22;16805;52.956;5.906;2022-09-09T07:01:04;15.30;99.90
29817;DHT22;16805;52.956;5.906;2022-09-09T07:03:30;15.30;99.90
29817;DHT22;16805;52.956;5.906;2022-09-09T07:05:56;15.30;99.90
29817;DHT22;16805;52.956;5.906;2022-09-09T07:08:22;15.30;99.90
29817;DHT22;16805;52.956;5.906;2022-09-09T07:10:48;15.40;99.90
29817;DHT22;16805;52.956;5.906;2022-09-09T07:13:14;15.40;99.90
29817;DHT22;16805;52.956;5.906;2022-09-09T07:15:41;15.50;99.90
29817;DHT22;16805;52.956;5.906;2022-09-09T07:18:07;15.50;99.90
29817;DHT22;16805;52.956;5.906;2022-09-09T07:20:35;15.50;99.90
29817;DHT22;16805;52.956;5.906;2022-09-09T07:23:01;15.60;99.90
29817;DHT22;16805;52.956;5.906;2022-09-09T07:25:26;15.60;99.90
29817;DHT22;16805;52.956;5.906;2022-09-09T07:27:54;15.70;99.90
29817;DHT22;16805;52.956;5.906;2022-09-09T07:30:20;16.00;99.90
29817;DHT22;16805;52.956;5.906;2022-09-09T07:32:46;16.20;99.90
29817;DHT22;16805;52.956;5.906;2022-09-09T07:35:11;16.40;99.90
29817;DHT22;16805;52.956;5.906;2022-09-09T07:37:37;16.50;99.90
29817;DHT22;16805;52.956;5.906;2022-09-09T07:40:04;16.70;99.90
29817;DHT22;16805;52.956;5.906;2022-09-09T07:42:30;16.80;99.90
29817;DHT22;16805;52.956;5.906;2022-09-09T07:44:56;16.90;99.90
29817;DHT22;16805;52.956;5.906;2022-09-09T07:47:22;16.90;99.90
29817;DHT22;16805;52.956;5.906;2022-09-09T07:49:50;17.00;99.90
29817;DHT22;16805;52.956;5.906;2022-09-09T07:52:15;17.10;99.90
29817;DHT22;16805;52.956;5.906;2022-09-09T07:54:42;17.20;99.90
29817;DHT22;16805;52.956;5.906;2022-09-09T07:57:07;17.30;99.90
29817;DHT22;16805;52.956;5.906;2022-09-09T07:59:33;17.30;99.90
29817;DHT22;16805;52.956;5.906;2022-09-09T08:01:59;17.40;99.90
29817;DHT22;16805;52.956;5.906;2022-09-09T08:04:25;17.40;99.90
29817;DHT22;16805;52.956;5.906;2022-09-09T08:06:56;17.40;99.90
29817;DHT22;16805;52.956;5.906;2022-09-09T08:09:23;17.40;99.90
29817;DHT22;16805;52.956;5.906;2022-09-09T08:11:54;17.50;99.90
29817;DHT22;16805;52.956;5.906;2022-09-09T08:14:21;17.60;99.90
29817;DHT22;16805;52.956;5.906;2022-09-09T08:16:50;17.80;99.90
29817;DHT22;16805;52.956;5.906;2022-09-09T08:19:16;17.90;99.90
29817;DHT22;16805;52.956;5.906;2022-09-09T08:21:43;18.00;99.90
29817;DHT22;16805;52.956;5.906;2022-09-09T08:24:11;18.00;99.90
29817;DHT22;16805;52.956;5.906;2022-09-09T08:26:42;18.10;99.90
29817;DHT22;16805;52.956;5.906;2022-09-09T08:29:09;18.10;99.90
29817;DHT22;16805;52.956;5.906;2022-09-09T08:31:37;18.10;99.90
29817;DHT22;16805;52.956;5.906;2022-09-09T08:34:04;18.00;99.90
29817;DHT22;16805;52.956;5.906;2022-09-09T08:36:38;18.00;99.90
29817;DHT22;16805;52.956;5.906;2022-09-09T08:39:06;18.00;99.90
29817;DHT22;16805;52.956;5.906;2022-09-09T08:47:37;18.00;99.90
29817;DHT22;16805;52.956;5.906;2022-09-09T08:50:22;18.10;99.90
29817;DHT22;16805;52.956;5.906;2022-09-09T08:55:57;18.10;99.90
29817;DHT22;16805;52.956;5.906;2022-09-09T08:58:28;18.10;99.90
29817;DHT22;16805;52.956;5.906;2022-09-09T09:09:09;18.10;99.90
29817;DHT22;16805;52.956;5.906;2022-09-09T09:11:45;18.00;99.90
29817;DHT22;16805;52.956;5.906;2022-09-09T09:17:01;18.00;99.90
29817;DHT22;16805;52.956;5.906;2022-09-09T09:19:30;18.00;99.90
29817;DHT22;16805;52.956;5.906;2022-09-09T09:24:36;18.00;99.90
29817;DHT22;16805;52.956;5.906;2022-09-09T09:27:14;18.00;99.90
29817;DHT22;16805;52.956;5.906;2022-09-09T09:29:40;18.00;99.90
29817;DHT22;16805;52.956;5.906;2022-09-09T09:32:11;18.00;99.90
29817;DHT22;16805;52.956;5.906;2022-09-09T09:34:39;18.10;99.90
29817;DHT22;16805;52.956;5.906;2022-09-09T09:37:16;18.10;99.90
29817;DHT22;16805;52.956;5.906;2022-09-09T09:39:45;18.20;99.90
29817;DHT22;16805;52.956;5.906;2022-09-09T09:42:16;18.30;99.90
29817;DHT22;16805;52.956;5.906;2022-09-09T09:44:42;18.40;99.90
29817;DHT22;16805;52.956;5.906;2022-09-09T09:47:18;18.40;99.90
29817;DHT22;16805;52.956;5.906;2022-09-09T09:49:59;18.50;99.90
29817;DHT22;16805;52.956;5.906;2022-09-09T09:52:26;18.60;99.90
29817;DHT22;16805;52.956;5.906;2022-09-09T09:54:54;18.60;99.90
29817;DHT22;16805;52.956;5.906;2022-09-09T09:57:30;18.60;99.90
29817;DHT22;16805;52.956;5.906;2022-09-09T10:00:16;18.60;99.90
29817;DHT22;16805;52.956;5.906;2022-09-09T10:02:44;18.60;99.90
29817;DHT22;16805;52.956;5.906;2022-09-09T10:05:17;18.60;99.90
29817;DHT22;16805;52.956;5.906;2022-09-09T10:07:43;18.60;99.90
29817;DHT22;16805;52.956;5.906;2022-09-09T10:10:20;18.60;99.90
29817;DHT22;16805;52.956;5.906;2022-09-09T10:15:47;18.60;99.90
29817;DHT22;16805;52.956;5.906;2022-09-09T10:18:49;18.60;99.90
29817;DHT22;16805;52.956;5.906;2022-09-09T10:30:17;18.50;99.90
29817;DHT22;16805;52.956;5.906;2022-09-09T10:38:16;18.40;99.90
29817;DHT22;16805;52.956;5.906;2022-09-09T10:49:03;18.40;99.90
29817;DHT22;16805;52.956;5.906;2022-09-09T10:54:42;18.50;99.90
29817;DHT22;16805;52.956;5.906;2022-09-09T10:57:13;18.40;99.90
29817;DHT22;16805;52.956;5.906;2022-09-09T10:59:45;18.40;99.90
29817;DHT22;16805;52.956;5.906;2022-09-09T11:02:28;18.50;99.90
29817;DHT22;16805;52.956;5.906;2022-09-09T11:05:05;18.40;99.90
29817;DHT22;16805;52.956;5.906;2022-09-09T11:07:41;18.50;99.90
29817;DHT22;16805;52.956;5.906;2022-09-09T11:13:19;18.40;99.90
29817;DHT22;16805;52.956;5.906;2022-09-09T11:15:51;18.40;99.90
29817;DHT22;16805;52.956;5.906;2022-09-09T11:18:21;18.40;99.90
29817;DHT22;16805;52.956;5.906;2022-09-09T11:20:51;18.40;99.90
29817;DHT22;16805;52.956;5.906;2022-09-09T11:23:38;18.40;99.90
29817;DHT22;16805;52.956;5.906;2022-09-09T11:26:06;18.50;99.90
29817;DHT22;16805;52.956;5.906;2022-09-09T11:29:03;18.60;99.90
29817;DHT22;16805;52.956;5.906;2022-09-09T11:32:06;18.70;99.90
29817;DHT22;16805;52.956;5.906;2022-09-09T11:42:39;18.80;99.90
29817;DHT22;16805;52.956;5.906;2022-09-09T11:47:56;18.80;99.90
29817;DHT22;16805;52.956;5.906;2022-09-09T11:52:49;18.80;99.90
29817;DHT22;16805;52.956;5.906;2022-09-09T11:55:30;18.80;99.90
29817;DHT22;16805;52.956;5.906;2022-09-09T11:58:17;18.80;99.90
29817;DHT22;16805;52.956;5.906;2022-09-09T12:00:49;18.80;99.90
29817;DHT22;16805;52.956;5.906;2022-09-09T12:08:53;18.80;99.90
29817;DHT22;16805;52.956;5.906;2022-09-09T12:11:29;18.80;99.90
29817;DHT22;16805;52.956;5.906;2022-09-09T12:14:00;18.80;99.90
29817;DHT22;16805;52.956;5.906;2022-09-09T12:16:33;18.80;99.90
29817;DHT22;16805;52.956;5.906;2022-09-09T12:19:15;18.80;99.90
29817;DHT22;16805;52.956;5.906;2022-09-09T12:22:02;18.80;99.90
29817;DHT22;16805;52.956;5.906;2022-09-09T12:24:50;18.90;99.90
29817;DHT22;16805;52.956;5.906;2022-09-09T12:27:25;18.90;99.90
29817;DHT22;16805;52.956;5.906;2022-09-09T12:30:04;19.00;99.90
29817;DHT22;16805;52.956;5.906;2022-09-09T12:32:34;19.00;99.90
29817;DHT22;16805;52.956;5.906;2022-09-09T12:35:04;19.00;99.90
29817;DHT22;16805;52.956;5.906;2022-09-09T12:37:49;19.00;99.90
29817;DHT22;16805;52.956;5.906;2022-09-09T12:40:20;19.10;99.90
29817;DHT22;16805;52.956;5.906;2022-09-09T12:42:46;19.10;99.90
29817;DHT22;16805;52.956;5.906;2022-09-09T12:45:17;19.10;99.90
29817;DHT22;16805;52.956;5.906;2022-09-09T12:47:55;19.10;99.90
29817;DHT22;16805;52.956;5.906;2022-09-09T12:50:29;19.10;99.90
29817;DHT22;16805;52.956;5.906;2022-09-09T12:53:07;19.10;99.90
29817;DHT22;16805;52.956;5.906;2022-09-09T12:55:37;19.20;99.90
29817;DHT22;16805;52.956;5.906;2022-09-09T12:58:05;19.20;99.90
29817;DHT22;16805;52.956;5.906;2022-09-09T13:00:32;19.10;99.90
29817;DHT22;16805;52.956;5.906;2022-09-09T13:03:00;19.10;99.90
29817;DHT22;16805;52.956;5.906;2022-09-09T13:05:36;19.10;99.90
29817;DHT22;16805;52.956;5.906;2022-09-09T13:08:06;19.00;99.90
29817;DHT22;16805;52.956;5.906;2022-09-09T13:10:44;19.00;99.90
29817;DHT22;16805;52.956;5.906;2022-09-09T13:13:36;18.90;99.90
29817;DHT22;16805;52.956;5.906;2022-09-09T13:16:04;18.80;99.90
29817;DHT22;16805;52.956;5.906;2022-09-09T13:18:34;18.80;99.90
29817;DHT22;16805;52.956;5.906;2022-09-09T13:21:01;18.70;99.90
29817;DHT22;16805;52.956;5.906;2022-09-09T13:23:29;18.70;99.90
29817;DHT22;16805;52.956;5.906;2022-09-09T13:26:25;18.70;99.90
29817;DHT22;16805;52.956;5.906;2022-09-09T13:28:52;18.70;99.90
29817;DHT22;16805;52.956;5.906;2022-09-09T13:31:24;18.70;99.90
29817;DHT22;16805;52.956;5.906;2022-09-09T13:33:52;18.70;99.90
29817;DHT22;16805;52.956;5.906;2022-09-09T13:36:31;18.80;99.90
29817;DHT22;16805;52.956;5.906;2022-09-09T13:38:58;18.80;99.90
29817;DHT22;16805;52.956;5.906;2022-09-09T13:41:36;18.90;99.90
29817;DHT22;16805;52.956;5.906;2022-09-09T13:44:03;18.90;99.90
29817;DHT22;16805;52.956;5.906;2022-09-09T13:46:36;19.00;99.90
29817;DHT22;16805;52.956;5.906;2022-09-09T13:49:22;19.00;99.90
29817;DHT22;16805;52.956;5.906;2022-09-09T13:51:50;19.00;99.90
29817;DHT22;16805;52.956;5.906;2022-09-09T13:54:19;19.00;99.90
29817;DHT22;16805;52.956;5.906;2022-09-09T13:56:46;19.00;99.90
29817;DHT22;16805;52.956;5.906;2022-09-09T13:59:14;19.10;99.90
29817;DHT22;16805;52.956;5.906;2022-09-09T14:01:40;19.10;99.90
29817;DHT22;16805;52.956;5.906;2022-09-09T14:04:07;19.10;99.90
29817;DHT22;16805;52.956;5.906;2022-09-09T14:06:36;19.20;99.90
29817;DHT22;16805;52.956;5.906;2022-09-09T14:09:06;19.20;99.90
29817;DHT22;16805;52.956;5.906;2022-09-09T14:11:32;19.20;99.90
29817;DHT22;16805;52.956;5.906;2022-09-09T14:13:58;19.20;99.90
29817;DHT22;16805;52.956;5.906;2022-09-09T14:16:23;19.20;99.90
29817;DHT22;16805;52.956;5.906;2022-09-09T14:18:49;19.20;99.90
29817;DHT22;16805;52.956;5.906;2022-09-09T14:21:14;19.10;99.90
29817;DHT22;16805;52.956;5.906;2022-09-09T14:23:41;19.10;99.90
29817;DHT22;16805;52.956;5.906;2022-09-09T14:26:07;19.10;99.90
29817;DHT22;16805;52.956;5.906;2022-09-09T14:28:36;19.00;99.90
29817;DHT22;16805;52.956;5.906;2022-09-09T14:31:03;19.00;99.90
29817;DHT22;16805;52.956;5.906;2022-09-09T14:33:29;18.80;99.90
29817;DHT22;16805;52.956;5.906;2022-09-09T14:35:59;18.80;99.90
29817;DHT22;16805;52.956;5.906;2022-09-09T14:38:26;18.70;99.90
29817;DHT22;16805;52.956;5.906;2022-09-09T14:40:53;18.70;99.90
29817;DHT22;16805;52.956;5.906;2022-09-09T14:43:38;18.70;99.90
29817;DHT22;16805;52.956;5.906;2022-09-09T14:46:08;18.60;99.90
29817;DHT22;16805;52.956;5.906;2022-09-09T14:48:35;18.40;99.90
29817;DHT22;16805;52.956;5.906;2022-09-09T14:51:13;18.40;99.90
29817;DHT22;16805;52.956;5.906;2022-09-09T14:53:41;18.20;99.90
29817;DHT22;16805;52.956;5.906;2022-09-09T14:56:16;18.10;99.90
29817;DHT22;16805;52.956;5.906;2022-09-09T14:58:42;18.10;99.90
29817;DHT22;16805;52.956;5.906;2022-09-09T15:01:11;18.00;99.90
29817;DHT22;16805;52.956;5.906;2022-09-09T15:03:41;17.90;99.90
29817;DHT22;16805;52.956;5.906;2022-09-09T15:06:12;17.90;99.90
29817;DHT22;16805;52.956;5.906;2022-09-09T15:08:39;17.90;99.90
29817;DHT22;16805;52.956;5.906;2022-09-09T15:11:06;17.80;99.90
29817;DHT22;16805;52.956;5.906;2022-09-09T15:13:35;17.80;99.90
29817;DHT22;16805;52.956;5.906;2022-09-09T15:16:13;17.80;99.90
29817;DHT22;16805;52.956;5.906;2022-09-09T15:18:40;17.80;99.90
29817;DHT22;16805;52.956;5.906;2022-09-09T15:21:09;17.80;99.90
29817;DHT22;16805;52.956;5.906;2022-09-09T15:23:35;17.80;99.90
29817;DHT22;16805;52.956;5.906;2022-09-09T15:26:02;17.80;99.90
29817;DHT22;16805;52.956;5.906;2022-09-09T15:28:28;17.80;99.90
29817;DHT22;16805;52.956;5.906;2022-09-09T15:30:55;17.90;99.90
29817;DHT22;16805;52.956;5.906;2022-09-09T15:33:22;17.90;99.90
29817;DHT22;16805;52.956;5.906;2022-09-09T15:35:48;17.90;99.90
29817;DHT22;16805;52.956;5.906;2022-09-09T15:38:15;18.00;99.90
29817;DHT22;16805;52.956;5.906;2022-09-09T15:40:42;18.00;99.90
29817;DHT22;16805;52.956;5.906;2022-09-09T15:43:08;18.10;99.90
29817;DHT22;16805;52.956;5.906;2022-09-09T15:45:36;18.10;99.90
29817;DHT22;16805;52.956;5.906;2022-09-09T15:48:03;18.20;99.90
29817;DHT22;16805;52.956;5.906;2022-09-09T15:50:29;18.10;99.90
29817;DHT22;16805;52.956;5.906;2022-09-09T15:52:59;18.20;99.90
29817;DHT22;16805;52.956;5.906;2022-09-09T15:55:25;18.20;99.90
29817;DHT22;16805;52.956;5.906;2022-09-09T15:57:51;18.30;99.90
29817;DHT22;16805;52.956;5.906;2022-09-09T16:00:19;18.20;99.90
29817;DHT22;16805;52.956;5.906;2022-09-09T16:02:48;18.20;99.90
29817;DHT22;16805;52.956;5.906;2022-09-09T16:05:14;18.30;99.90
29817;DHT22;16805;52.956;5.906;2022-09-09T16:07:40;18.30;99.90
29817;DHT22;16805;52.956;5.906;2022-09-09T16:10:08;18.40;99.90
29817;DHT22;16805;52.956;5.906;2022-09-09T16:12:33;18.40;99.90
29817;DHT22;16805;52.956;5.906;2022-09-09T16:14:59;18.40;99.90
29817;DHT22;16805;52.956;5.906;2022-09-09T16:17:25;18.50;99.90
29817;DHT22;16805;52.956;5.906;2022-09-09T16:19:53;18.40;99.90
29817;DHT22;16805;52.956;5.906;2022-09-09T16:22:19;18.50;99.90
29817;DHT22;16805;52.956;5.906;2022-09-09T16:24:45;18.50;99.90
29817;DHT22;16805;52.956;5.906;2022-09-09T16:27:10;18.50;99.90
29817;DHT22;16805;52.956;5.906;2022-09-09T16:29:37;18.50;99.90
29817;DHT22;16805;52.956;5.906;2022-09-09T16:32:02;18.40;99.90
29817;DHT22;16805;52.956;5.906;2022-09-09T16:34:29;18.50;99.90
29817;DHT22;16805;52.956;5.906;2022-09-09T16:36:54;18.50;99.90
29817;DHT22;16805;52.956;5.906;2022-09-09T16:39:20;18.40;99.90
29817;DHT22;16805;52.956;5.906;2022-09-09T16:41:47;18.40;99.90
29817;DHT22;16805;52.956;5.906;2022-09-09T16:44:15;18.40;99.90
29817;DHT22;16805;52.956;5.906;2022-09-09T16:46:43;18.40;99.90
29817;DHT22;16805;52.956;5.906;2022-09-09T16:49:10;18.30;99.90
29817;DHT22;16805;52.956;5.906;2022-09-09T16:51:44;18.30;99.90
29817;DHT22;16805;52.956;5.906;2022-09-09T16:54:12;18.30;99.90
29817;DHT22;16805;52.956;5.906;2022-09-09T16:56:40;18.30;99.90
29817;DHT22;16805;52.956;5.906;2022-09-09T16:59:15;18.30;99.90
29817;DHT22;16805;52.956;5.906;2022-09-09T17:01:42;18.20;99.90
29817;DHT22;16805;52.956;5.906;2022-09-09T17:04:28;18.30;99.90
29817;DHT22;16805;52.956;5.906;2022-09-09T17:06:56;18.20;99.90
29817;DHT22;16805;52.956;5.906;2022-09-09T17:09:23;18.20;99.90
29817;DHT22;16805;52.956;5.906;2022-09-09T17:11:54;18.20;99.90
29817;DHT22;16805;52.956;5.906;2022-09-09T17:14:21;18.20;99.90
29817;DHT22;16805;52.956;5.906;2022-09-09T17:16:47;18.20;99.90
29817;DHT22;16805;52.956;5.906;2022-09-09T17:19:13;18.20;99.90
29817;DHT22;16805;52.956;5.906;2022-09-09T17:21:39;18.20;99.90
29817;DHT22;16805;52.956;5.906;2022-09-09T17:24:24;18.10;99.90
29817;DHT22;16805;52.956;5.906;2022-09-09T17:26:51;18.10;99.90
29817;DHT22;16805;52.956;5.906;2022-09-09T17:29:17;18.10;99.90
29817;DHT22;16805;52.956;5.906;2022-09-09T17:31:43;18.10;99.90
29817;DHT22;16805;52.956;5.906;2022-09-09T17:34:09;18.10;99.90
29817;DHT22;16805;52.956;5.906;2022-09-09T17:36:35;18.10;99.90
29817;DHT22;16805;52.956;5.906;2022-09-09T17:39:03;18.10;99.90
29817;DHT22;16805;52.956;5.906;2022-09-09T17:41:39;18.10;99.90
29817;DHT22;16805;52.956;5.906;2022-09-09T17:44:06;18.10;99.90
29817;DHT22;16805;52.956;5.906;2022-09-09T17:46:42;18.10;99.90
29817;DHT22;16805;52.956;5.906;2022-09-09T17:49:15;18.10;99.90
29817;DHT22;16805;52.956;5.906;2022-09-09T17:51:43;18.10;99.90
29817;DHT22;16805;52.956;5.906;2022-09-09T17:54:15;18.10;99.90
29817;DHT22;16805;52.956;5.906;2022-09-09T17:56:41;18.10;99.90
29817;DHT22;16805;52.956;5.906;2022-09-09T17:59:08;18.00;99.90
29817;DHT22;16805;52.956;5.906;2022-09-09T18:01:37;18.00;99.90